Punta Gialla — IWUC — position and weather

sailwx.info

Track history (hours):
 
Tides and Currents Weather Stations Pressure Air Temp Water Temp Dewpoint Dewpoint Depression Visibility Wind Speed Wind Dir Waves Ship Positions

Punta Gialla

Last reported at 2017-May-30 07:00 UTC. Time now 2017-May-30 07:15 UTC.
Position N 44°24' E 008°54'.

Length 52 m; draft 1.7 m.

Type: Ship (hazmat cat D). MMSI: 247077500.

Date/timePositionNaut miles runAvg speedWind from/ knotsBaromVisibWave heightAir tempDewpointWater temp
2017-May-30 07:00N 44°24' E 008°54'0 0.0
2017-May-30 06:30N 44°24' E 008°54'0 0.0
2017-May-30 06:00N 44°24' E 008°54'0 0.0
2017-May-30 05:30N 44°24' E 008°54'0 0.0
2017-May-30 05:00N 44°24' E 008°54'0 0.0
2017-May-30 04:30N 44°24' E 008°54'0 0.0
2017-May-30 04:00N 44°24' E 008°54'0 0.0
2017-May-30 03:30N 44°24' E 008°54'0 0.0
2017-May-30 03:00N 44°24' E 008°54'0 0.0
2017-May-30 02:30N 44°24' E 008°54'0 0.0
2017-May-30 02:00N 44°24' E 008°54'0 0.0
2017-May-30 01:30N 44°24' E 008°54'0 0.0
2017-May-30 01:00N 44°24' E 008°54'0 0.0
2017-May-30 00:30N 44°24' E 008°54'0 0.0
2017-May-30 00:00N 44°24' E 008°54'0 0.0
2017-May-29 23:30N 44°24' E 008°54'0 0.0
2017-May-29 23:00N 44°24' E 008°54'0 0.0
2017-May-29 22:30N 44°24' E 008°54'0 0.0
2017-May-29 22:00N 44°24' E 008°54'0 0.0
2017-May-29 21:30N 44°24' E 008°54'0 0.0
2017-May-29 21:00N 44°24' E 008°54'0 0.0
2017-May-29 20:30N 44°24' E 008°54'0 0.0
2017-May-29 20:00N 44°24' E 008°54'0 0.0
2017-May-29 19:30N 44°24' E 008°54'0 0.7
2017-May-29 19:00N 44°24' E 008°55'0 0.0
2017-May-29 18:30N 44°24' E 008°55'0 0.0
2017-May-29 18:00N 44°24' E 008°55'0 0.1
2017-May-29 17:30N 44°24' E 008°55'0 0.7
2017-May-29 17:00N 44°24' E 008°54'0 0.0
2017-May-29 16:30N 44°24' E 008°54'0 0.0
2017-May-29 16:00N 44°24' E 008°54'0 0.0
2017-May-29 15:30N 44°24' E 008°54'0 0.0
2017-May-29 15:00N 44°24' E 008°54'0 0.0
2017-May-29 14:00N 44°24' E 008°54'0 0.0
2017-May-29 13:30N 44°24' E 008°54'1 2.5
2017-May-29 13:00N 44°24' E 008°53'4 7.7
2017-May-29 12:30N 44°22' E 008°48'5 9.6
2017-May-29 12:00N 44°20' E 008°42'5 9.3
2017-May-29 11:30N 44°18' E 008°37'5 9.3
2017-May-29 11:00N 44°19' E 008°30'1 1.5
2017-May-29 10:30N 44°19' E 008°29'0 0.0
2017-May-29 09:47N 44°19' E 008°29'0 0.0
2017-May-29 09:30N 44°19' E 008°29'0 0.0
2017-May-29 09:00N 44°19' E 008°29'0 0.0
2017-May-29 08:30N 44°19' E 008°29'0 0.1
2017-May-29 08:00N 44°19' E 008°29'0 0.0
2017-May-29 07:30N 44°19' E 008°29'3 5.5
2017-May-29 07:00N 44°18' E 008°33'4 7.8
2017-May-29 06:29N 44°18' E 008°39'4 8.5
2017-May-29 06:00N 44°20' E 008°44'4 8.3
2017-May-29 05:30N 44°22' E 008°49'3 7.0
2017-May-29 05:01N 44°24' E 008°53'1 2.7
2017-May-29 04:30N 44°24' E 008°54'0 0.0
2017-May-29 04:00N 44°24' E 008°54'0 0.0
2017-May-29 03:30N 44°24' E 008°54'0 0.0
2017-May-29 03:00N 44°24' E 008°54'0 0.0
2017-May-29 02:30N 44°24' E 008°54'0 0.0
2017-May-29 02:00N 44°24' E 008°54'0 0.0
2017-May-29 01:30N 44°24' E 008°54'0 0.0
2017-May-29 01:00N 44°24' E 008°54'0 0.0
2017-May-29 00:30N 44°24' E 008°54'0 0.0
2017-May-29 00:00N 44°24' E 008°54'0 0.0
2017-May-28 23:30N 44°24' E 008°54'0 0.0
2017-May-28 23:00N 44°24' E 008°54'0 0.0
2017-May-28 22:31N 44°24' E 008°54'0 0.0
2017-May-28 22:00N 44°24' E 008°54'0 0.0
2017-May-28 21:31N 44°24' E 008°54'0 0.0
2017-May-28 21:01N 44°24' E 008°54'0 0.0
2017-May-28 20:31N 44°24' E 008°54'0 0.0
2017-May-28 20:00N 44°24' E 008°54'0 0.0
2017-May-28 19:30N 44°24' E 008°54'0 0.0
2017-May-28 19:00N 44°24' E 008°54'0 0.0
2017-May-28 18:30N 44°24' E 008°54'0 0.0
2017-May-28 18:01N 44°24' E 008°54'0 0.0
2017-May-28 17:31N 44°24' E 008°54'0 0.0
2017-May-28 17:00N 44°24' E 008°54'0 0.0
2017-May-28 16:30N 44°24' E 008°54'0 0.0
2017-May-28 16:00N 44°24' E 008°54'0 0.0
2017-May-28 15:30N 44°24' E 008°54'0 0.0
2017-May-28 15:00N 44°24' E 008°54'0 0.0
2017-May-28 14:00N 44°24' E 008°54'0 0.0
2017-May-28 13:30N 44°24' E 008°54'0 0.0
2017-May-28 13:00N 44°24' E 008°54'0 0.0
2017-May-28 12:30N 44°24' E 008°54'0 0.0
2017-May-28 12:00N 44°24' E 008°54'0 0.0
2017-May-28 11:30N 44°24' E 008°54'0 0.0
2017-May-28 11:00N 44°24' E 008°54'0 0.0
2017-May-28 10:30N 44°24' E 008°54'0 0.0
2017-May-28 10:00N 44°24' E 008°54'0 0.0
2017-May-28 09:30N 44°24' E 008°54'0 0.0
2017-May-28 09:01N 44°24' E 008°54'0 0.0
2017-May-28 08:30N 44°24' E 008°54'0 0.0
2017-May-28 08:01N 44°24' E 008°54'0 0.0
2017-May-28 07:30N 44°24' E 008°54'0 0.0
2017-May-28 07:01N 44°24' E 008°54'0 0.0
2017-May-28 06:30N 44°24' E 008°54'0 0.0
2017-May-28 06:00N 44°24' E 008°54'0 0.0
2017-May-28 05:30N 44°24' E 008°54'0 0.0
2017-May-28 05:00N 44°24' E 008°54'0 0.0
2017-May-28 04:30N 44°24' E 008°54'0 0.0
2017-May-28 04:00N 44°24' E 008°54'0 0.0
2017-May-28 03:31N 44°24' E 008°54'0 0.0
2017-May-28 03:00N 44°24' E 008°54'0 0.0
2017-May-28 02:30N 44°24' E 008°54'0 0.0
2017-May-28 02:01N 44°24' E 008°54'0 0.0
2017-May-28 01:30N 44°24' E 008°54'0 0.0
2017-May-28 01:00N 44°24' E 008°54'0 0.0
2017-May-28 00:30N 44°24' E 008°54'0 0.0
2017-May-28 00:00N 44°24' E 008°54'0 0.0
2017-May-27 23:30N 44°24' E 008°54'0 0.0
2017-May-27 23:00N 44°24' E 008°54'0 0.0
2017-May-27 22:30N 44°24' E 008°54'0 0.0
2017-May-27 22:00N 44°24' E 008°54'0 0.0
2017-May-27 21:30N 44°24' E 008°54'0 0.0
2017-May-27 21:00N 44°24' E 008°54'0 0.0
2017-May-27 20:30N 44°24' E 008°54'0 0.0
2017-May-27 20:00N 44°24' E 008°54'0 0.0
2017-May-27 19:31N 44°24' E 008°54'0 0.0
2017-May-27 19:00N 44°24' E 008°54'0 0.0
2017-May-27 18:30N 44°24' E 008°54'0 0.0
2017-May-27 18:00N 44°24' E 008°54'0 0.0
2017-May-27 17:30N 44°24' E 008°54'0 0.0
2017-May-27 17:00N 44°24' E 008°54'0 0.0
2017-May-27 16:30N 44°24' E 008°54'0 0.0
2017-May-27 16:00N 44°24' E 008°54'0 0.0
2017-May-27 15:30N 44°24' E 008°54'0 0.0
2017-May-27 15:00N 44°24' E 008°54'0 0.0
2017-May-27 14:00N 44°24' E 008°54'0 0.0
2017-May-27 13:30N 44°24' E 008°54'0 0.0
2017-May-27 13:01N 44°24' E 008°54'0 0.0
2017-May-27 12:31N 44°24' E 008°54'0 0.0
2017-May-27 12:00N 44°24' E 008°54'0 0.0
2017-May-27 11:30N 44°24' E 008°54'0 0.0
2017-May-27 11:00N 44°24' E 008°54'0 0.0
2017-May-27 10:30N 44°24' E 008°54'0 0.0
2017-May-27 10:00N 44°24' E 008°54'0 0.0
2017-May-27 09:30N 44°24' E 008°54'0 0.0
2017-May-27 09:00N 44°24' E 008°54'0 0.7
2017-May-27 08:30N 44°24' E 008°54'0 0.0
2017-May-27 08:00N 44°24' E 008°54'0 0.0
2017-May-27 07:30N 44°24' E 008°54'0 0.0
2017-May-27 07:00N 44°24' E 008°54'0 0.6
2017-May-27 06:30N 44°24' E 008°54'0 0.0
2017-May-27 06:00N 44°24' E 008°54'0 0.0
2017-May-27 05:30N 44°24' E 008°54'0 0.0
2017-May-27 05:00N 44°24' E 008°54'0 0.0
2017-May-27 04:31N 44°24' E 008°54'0 0.0
2017-May-27 04:00N 44°24' E 008°54'0 0.0
2017-May-27 03:30N 44°24' E 008°54'0 0.0
2017-May-27 03:00N 44°24' E 008°54'0 0.0
2017-May-27 02:30N 44°24' E 008°54'0 0.0
2017-May-27 02:00N 44°24' E 008°54'0 0.0
2017-May-27 01:30N 44°24' E 008°54'0 0.0
2017-May-27 01:00N 44°24' E 008°54'0 0.0
2017-May-27 00:30N 44°24' E 008°54'0 0.0
2017-May-27 00:00N 44°24' E 008°54'0 0.0
2017-May-26 23:30N 44°24' E 008°54'1 2.1
2017-May-26 23:00N 44°24' E 008°53'0 0.0
2017-May-26 22:30N 44°24' E 008°53'0 0.0
2017-May-26 22:00N 44°24' E 008°53'0 0.0
2017-May-26 21:30N 44°24' E 008°53'0 0.0
2017-May-26 21:00N 44°24' E 008°53'0 0.0
2017-May-26 20:30N 44°24' E 008°53'1 1.2
2017-May-26 20:00N 44°24' E 008°54'1 1.8
2017-May-26 19:30N 44°24' E 008°55'0 0.0
2017-May-26 19:00N 44°24' E 008°55'0 0.0
2017-May-26 18:30N 44°24' E 008°55'0 0.0
2017-May-26 18:00N 44°24' E 008°55'0 0.0
2017-May-26 17:30N 44°24' E 008°55'0 0.1
2017-May-26 17:00N 44°24' E 008°55'0 0.0
2017-May-26 16:30N 44°24' E 008°55'0 0.0
2017-May-26 16:00N 44°24' E 008°55'0 0.0
2017-May-26 15:30N 44°24' E 008°55'0 0.0
2017-May-26 15:00N 44°24' E 008°55'0 0.0
2017-May-26 14:30N 44°24' E 008°55'0 0.5
2017-May-26 13:30N 44°24' E 008°54'0 0.0
2017-May-26 13:00N 44°24' E 008°54'0 0.0
2017-May-26 12:30N 44°24' E 008°54'0 0.0
2017-May-26 12:00N 44°24' E 008°54'0 0.0
2017-May-26 11:30N 44°24' E 008°54'0 0.0
2017-May-26 11:00N 44°24' E 008°54'0 0.0
2017-May-26 10:30N 44°24' E 008°54'0 0.0
2017-May-26 10:00N 44°24' E 008°54'0 0.0
2017-May-26 09:30N 44°24' E 008°54'0 0.0
2017-May-26 09:00N 44°24' E 008°54'0 0.0
2017-May-26 08:30N 44°24' E 008°54'0 0.0
2017-May-26 08:00N 44°24' E 008°54'0 0.0
2017-May-26 07:30N 44°24' E 008°54'0 0.0
2017-May-26 07:00N 44°24' E 008°54'0 0.0
2017-May-26 06:30N 44°24' E 008°54'0 0.0
2017-May-26 06:00N 44°24' E 008°54'0 0.0
2017-May-26 05:30N 44°24' E 008°54'0 0.0
2017-May-26 05:00N 44°24' E 008°54'0 0.0
2017-May-26 04:30N 44°24' E 008°54'0 0.0
2017-May-26 04:00N 44°24' E 008°54'0 0.0
2017-May-26 03:30N 44°24' E 008°54'0 0.0
2017-May-26 03:00N 44°24' E 008°54'0 0.0
2017-May-26 02:30N 44°24' E 008°54'0 0.0
2017-May-26 02:00N 44°24' E 008°54'0 0.0
2017-May-26 01:30N 44°24' E 008°54'0 0.0
2017-May-26 01:00N 44°24' E 008°54'0 0.0
2017-May-26 00:30N 44°24' E 008°54'0 0.0
2017-May-26 00:00N 44°24' E 008°54'0 0.0
2017-May-25 23:30N 44°24' E 008°54'0 0.0
2017-May-25 23:00N 44°24' E 008°54'0 0.0
2017-May-25 22:30N 44°24' E 008°54'0 0.0
2017-May-25 22:00N 44°24' E 008°54'0 0.0
2017-May-25 21:30N 44°24' E 008°54'0 0.0
2017-May-25 21:00N 44°24' E 008°54'0 0.0
2017-May-25 20:30N 44°24' E 008°54'0 0.0
2017-May-25 20:00N 44°24' E 008°54'0 0.0
2017-May-25 19:30N 44°24' E 008°54'0 0.0
2017-May-25 19:00N 44°24' E 008°54'0 0.0
2017-May-25 18:30N 44°24' E 008°54'0 0.0
2017-May-25 18:00N 44°24' E 008°54'0 0.5
2017-May-25 17:30N 44°24' E 008°55'0 0.0
2017-May-25 17:00N 44°24' E 008°55'0 0.0
2017-May-25 16:30N 44°24' E 008°55'0 0.0
2017-May-25 16:00N 44°24' E 008°55'0 0.0
2017-May-25 15:30N 44°24' E 008°55'0 0.0
2017-May-25 15:00N 44°24' E 008°55'0 0.2
2017-May-25 14:00N 44°24' E 008°54'0 0.1
2017-May-25 13:30N 44°24' E 008°54'3 6.1
2017-May-25 13:00N 44°23' E 008°50'3 5.4
2017-May-25 12:30N 44°25' E 008°47'0 0.3
2017-May-25 12:00N 44°25' E 008°48'0 0.0
2017-May-25 11:30N 44°25' E 008°48'0 0.0
2017-May-25 11:00N 44°25' E 008°48'0 0.0
2017-May-25 10:30N 44°25' E 008°48'0 0.0
2017-May-25 10:00N 44°25' E 008°48'0 0.1
2017-May-25 09:30N 44°25' E 008°48'0 0.0
2017-May-25 09:00N 44°25' E 008°48'0 0.0
2017-May-25 08:30N 44°25' E 008°48'0 0.0
2017-May-25 08:00N 44°25' E 008°48'0 0.0
2017-May-25 07:30N 44°25' E 008°48'0 0.1
2017-May-25 07:00N 44°25' E 008°48'2 4.6
2017-May-25 06:30N 44°23' E 008°49'3 6.9
2017-May-25 06:00N 44°24' E 008°54'1 1.5
2017-May-25 05:30N 44°24' E 008°55'0 0.0
2017-May-25 05:00N 44°24' E 008°55'0 0.0
2017-May-25 04:30N 44°24' E 008°55'0 0.0
2017-May-25 04:00N 44°24' E 008°55'0 0.0
2017-May-25 03:30N 44°24' E 008°55'0 0.0
2017-May-25 03:00N 44°24' E 008°55'0 0.0
2017-May-25 02:30N 44°24' E 008°55'0 0.0
2017-May-25 02:00N 44°24' E 008°55'0 0.0
2017-May-25 01:30N 44°24' E 008°55'0 0.0
2017-May-25 01:00N 44°24' E 008°55'0 0.0
2017-May-25 00:30N 44°24' E 008°55'0 0.0
2017-May-25 00:00N 44°24' E 008°55'0 0.0
2017-May-24 23:30N 44°24' E 008°55'1 2.9
2017-May-24 23:00N 44°24' E 008°53'0 0.0
2017-May-24 22:30N 44°24' E 008°53'0 0.0
2017-May-24 22:00N 44°24' E 008°53'0 0.1
2017-May-24 21:30N 44°24' E 008°53'0 0.0
2017-May-24 21:01N 44°24' E 008°53'1 2.8
2017-May-24 20:30N 44°24' E 008°55'0 0.0
2017-May-24 20:00N 44°24' E 008°55'0 0.0
2017-May-24 19:30N 44°24' E 008°55'0 0.0
2017-May-24 19:00N 44°24' E 008°55'0 0.0
2017-May-24 18:30N 44°24' E 008°55'0 0.0
2017-May-24 18:01N 44°24' E 008°55'0 0.0
2017-May-24 17:31N 44°24' E 008°55'0 0.9
2017-May-24 17:01N 44°24' E 008°54'0 0.0
2017-May-24 16:31N 44°24' E 008°54'0 0.0
2017-May-24 16:01N 44°24' E 008°54'0 0.0
2017-May-24 15:31N 44°24' E 008°54'0 0.0
2017-May-24 15:01N 44°24' E 008°54'0 0.0
2017-May-24 14:31N 44°24' E 008°54'0 0.0
2017-May-24 13:30N 44°24' E 008°54'0 0.0
2017-May-24 13:00N 44°24' E 008°54'0 0.9
2017-May-24 12:30N 44°24' E 008°55'0 0.0
2017-May-24 12:01N 44°24' E 008°55'0 0.0
2017-May-24 11:30N 44°24' E 008°55'0 0.1
2017-May-24 04:36N 44°24' E 008°54'0 0.0
2017-May-24 04:30N 44°24' E 008°54'0 0.0
2017-May-24 04:00N 44°24' E 008°54'0 0.0
2017-May-24 03:30N 44°24' E 008°54'0 0.0
2017-May-24 03:00N 44°24' E 008°54'0 0.0
2017-May-24 02:30N 44°24' E 008°54'0 0.0
2017-May-24 02:00N 44°24' E 008°54'0 0.0
2017-May-24 01:30N 44°24' E 008°54'0 0.0
2017-May-24 01:00N 44°24' E 008°54'0 0.0
2017-May-24 00:30N 44°24' E 008°54'0 0.0
2017-May-24 00:00N 44°24' E 008°54'0 0.0
2017-May-23 23:30N 44°24' E 008°54'0 0.0
2017-May-23 23:00N 44°24' E 008°54'0 0.0
2017-May-23 22:30N 44°24' E 008°54'0 0.0
2017-May-23 22:00N 44°24' E 008°54'0 0.0
2017-May-23 21:30N 44°24' E 008°54'0 0.0
2017-May-23 21:00N 44°24' E 008°54'0 0.0
2017-May-23 20:30N 44°24' E 008°54'0 0.0
2017-May-23 20:00N 44°24' E 008°54'0 0.0
2017-May-23 19:30N 44°24' E 008°54'0 0.9
2017-May-23 19:00N 44°25' E 008°55'0 0.0
2017-May-23 18:30N 44°25' E 008°55'0 0.0
2017-May-23 18:00N 44°25' E 008°55'0 0.0
2017-May-23 17:30N 44°25' E 008°55'1 1.4
2017-May-23 17:00N 44°24' E 008°55'1 1.1
2017-May-23 16:30N 44°24' E 008°54'0 0.0
2017-May-23 16:00N 44°24' E 008°54'0 0.0
2017-May-23 15:30N 44°24' E 008°54'0 0.0
2017-May-23 15:00N 44°24' E 008°54'0 0.3
2017-May-23 14:01N 44°24' E 008°55'0 0.4
2017-May-23 13:30N 44°24' E 008°55'0 0.0
2017-May-23 13:00N 44°24' E 008°55'0 0.0
2017-May-23 12:30N 44°24' E 008°55'0 0.0
2017-May-23 12:00N 44°24' E 008°55'0 0.0
2017-May-23 11:30N 44°24' E 008°55'0 0.0
2017-May-23 11:00N 44°24' E 008°55'0 0.0
2017-May-23 10:30N 44°24' E 008°55'0 0.0
2017-May-23 10:00N 44°24' E 008°55'0 0.0
2017-May-23 09:30N 44°24' E 008°55'0 0.0
2017-May-23 09:01N 44°24' E 008°55'0 1.0
2017-May-23 08:31N 44°24' E 008°54'0 0.0
2017-May-23 08:00N 44°24' E 008°54'0 0.0
2017-May-23 07:31N 44°24' E 008°54'0 0.0
2017-May-23 07:00N 44°24' E 008°54'0 0.0
2017-May-23 06:30N 44°24' E 008°54'0 0.0
2017-May-23 06:00N 44°24' E 008°54'0 0.0
2017-May-23 05:31N 44°24' E 008°54'0 0.0
2017-May-23 05:01N 44°24' E 008°54'0 0.0
2017-May-23 04:30N 44°24' E 008°54'0 0.0
2017-May-23 04:01N 44°24' E 008°54'0 0.0
2017-May-23 03:30N 44°24' E 008°54'0 0.0
2017-May-23 03:00N 44°24' E 008°54'0 0.0
2017-May-23 02:30N 44°24' E 008°54'0 0.0
2017-May-23 02:00N 44°24' E 008°54'0 0.0
2017-May-23 01:31N 44°24' E 008°54'0 0.0
2017-May-23 01:00N 44°24' E 008°54'0 0.0
2017-May-23 00:30N 44°24' E 008°54'0 0.0
2017-May-23 00:00N 44°24' E 008°54'0 0.0
2017-May-22 23:31N 44°24' E 008°54'0 0.0
2017-May-22 23:01N 44°24' E 008°54'0 0.0
2017-May-22 22:30N 44°24' E 008°54'0 0.0
2017-May-22 22:00N 44°24' E 008°54'0 0.0
2017-May-22 21:31N 44°24' E 008°54'0 0.0
2017-May-22 21:00N 44°24' E 008°54'0 0.0
2017-May-22 20:30N 44°24' E 008°54'0 0.0
2017-May-22 20:00N 44°24' E 008°54'0 0.0
2017-May-22 19:30N 44°24' E 008°54'0 0.0
2017-May-22 19:00N 44°24' E 008°54'0 0.0
2017-May-22 18:30N 44°24' E 008°54'0 0.0
2017-May-22 18:00N 44°24' E 008°54'0 0.0
2017-May-22 17:30N 44°24' E 008°54'0 0.0
2017-May-22 17:00N 44°24' E 008°54'0 0.0
2017-May-22 16:30N 44°24' E 008°54'0 0.0
2017-May-22 16:00N 44°24' E 008°54'0 0.0
2017-May-22 15:30N 44°24' E 008°54'0 0.0
2017-May-22 15:00N 44°24' E 008°54'0 0.0
2017-May-22 14:01N 44°24' E 008°54'0 0.0
2017-May-22 13:30N 44°24' E 008°54'0 0.0
2017-May-22 13:00N 44°24' E 008°54'0 0.0
2017-May-22 12:31N 44°24' E 008°54'0 0.0
2017-May-22 12:00N 44°24' E 008°54'0 0.0
2017-May-22 11:30N 44°24' E 008°54'0 0.0
2017-May-22 11:00N 44°24' E 008°54'0 0.0
2017-May-22 10:31N 44°24' E 008°54'0 0.0
2017-May-22 10:00N 44°24' E 008°54'0 0.0
2017-May-22 09:30N 44°24' E 008°54'0 0.0
2017-May-22 09:00N 44°24' E 008°54'0 0.0
2017-May-22 08:30N 44°24' E 008°54'0 0.0
2017-May-22 08:00N 44°24' E 008°54'0 0.0
2017-May-22 07:30N 44°24' E 008°54'0 0.0
2017-May-22 07:01N 44°24' E 008°54'0 0.0
2017-May-22 06:30N 44°24' E 008°54'0 0.0
2017-May-22 06:01N 44°24' E 008°54'0 0.0
2017-May-22 05:31N 44°24' E 008°54'0 0.0
2017-May-22 05:00N 44°24' E 008°54'0 0.0
2017-May-22 04:31N 44°24' E 008°54'0 0.0
2017-May-22 04:01N 44°24' E 008°54'0 0.0
2017-May-22 03:30N 44°24' E 008°54'0 0.0
2017-May-22 03:00N 44°24' E 008°54'0 0.0
2017-May-22 02:31N 44°24' E 008°54'0 0.0
2017-May-22 02:00N 44°24' E 008°54'0 0.0
2017-May-22 01:31N 44°24' E 008°54'0 0.0
2017-May-22 01:01N 44°24' E 008°54'0 0.0
2017-May-22 00:31N 44°24' E 008°54'0 0.0
2017-May-22 00:01N 44°24' E 008°54'0 0.0
2017-May-21 23:31N 44°24' E 008°54'0 0.0
2017-May-21 23:01N 44°24' E 008°54'0 0.0
2017-May-21 22:31N 44°24' E 008°54'0 0.0
2017-May-21 22:01N 44°24' E 008°54'0 0.0
2017-May-21 21:31N 44°24' E 008°54'0 0.0
2017-May-21 21:00N 44°24' E 008°54'0 0.0
2017-May-21 20:31N 44°24' E 008°54'0 0.0
2017-May-21 20:00N 44°24' E 008°54'0 0.0
2017-May-21 19:31N 44°24' E 008°54'0 0.0
2017-May-21 19:01N 44°24' E 008°54'0 0.0
2017-May-21 18:30N 44°24' E 008°54'0 0.0
2017-May-21 18:00N 44°24' E 008°54'0 0.0
2017-May-21 17:31N 44°24' E 008°54'0 0.0
2017-May-21 17:00N 44°24' E 008°54'0 0.0
2017-May-21 16:30N 44°24' E 008°54'0 0.0
2017-May-21 16:00N 44°24' E 008°54'0 0.0
2017-May-21 15:31N 44°24' E 008°54'0 0.0
2017-May-21 15:00N 44°24' E 008°54'0 0.0
2017-May-21 14:01N 44°24' E 008°54'0 0.0
2017-May-21 13:31N 44°24' E 008°54'0 0.0
2017-May-21 13:01N 44°24' E 008°54'0 0.4
2017-May-21 12:31N 44°24' E 008°54'6 7.7
2017-May-21 11:41N 44°21' E 008°46'2 9.4
2017-May-21 11:30N 44°20' E 008°44'5 9.7
2017-May-21 11:00N 44°18' E 008°38'4 8.7
2017-May-21 10:30N 44°18' E 008°32'2 4.2
2017-May-21 10:00N 44°19' E 008°30'0 0.0
2017-May-21 09:30N 44°19' E 008°30'0 0.0
2017-May-21 09:00N 44°19' E 008°30'0 0.0
2017-May-21 08:30N 44°19' E 008°30'0 0.1
2017-May-21 08:00N 44°19' E 008°30'0 0.0
2017-May-21 07:30N 44°19' E 008°30'1 2.6
2017-May-21 07:00N 44°18' E 008°31'4 7.2
2017-May-21 06:30N 44°17' E 008°36'4 8.9
2017-May-21 06:00N 44°19' E 008°42'4 8.6
2017-May-21 05:30N 44°21' E 008°47'5 9.0
2017-May-21 05:00N 44°24' E 008°52'1 2.9
2017-May-21 04:30N 44°24' E 008°54'0 0.0
2017-May-21 04:00N 44°24' E 008°54'0 0.0
2017-May-21 03:30N 44°24' E 008°54'0 0.0
2017-May-21 03:00N 44°24' E 008°54'0 0.0
2017-May-21 02:30N 44°24' E 008°54'0 0.0
2017-May-21 02:00N 44°24' E 008°54'0 0.0
2017-May-21 01:30N 44°24' E 008°54'0 0.0
2017-May-21 01:00N 44°24' E 008°54'0 0.0
2017-May-21 00:30N 44°24' E 008°54'0 0.0
2017-May-21 00:00N 44°24' E 008°54'0 0.0
2017-May-20 23:30N 44°24' E 008°54'0 0.0
2017-May-20 23:00N 44°24' E 008°54'0 0.0
2017-May-20 22:30N 44°24' E 008°54'0 0.0
2017-May-20 22:00N 44°24' E 008°54'0 0.0
2017-May-20 21:30N 44°24' E 008°54'0 0.0
2017-May-20 21:00N 44°24' E 008°54'0 0.0
2017-May-20 20:30N 44°24' E 008°54'0 0.0
2017-May-20 20:00N 44°24' E 008°54'0 0.0
2017-May-20 19:30N 44°24' E 008°54'0 0.0
2017-May-20 19:00N 44°24' E 008°54'0 0.0
2017-May-20 18:30N 44°24' E 008°54'0 0.0
2017-May-20 18:00N 44°24' E 008°54'0 0.0
2017-May-20 17:30N 44°24' E 008°54'0 0.0
2017-May-20 17:00N 44°24' E 008°54'0 0.0
2017-May-20 16:30N 44°24' E 008°54'0 0.0
2017-May-20 16:00N 44°24' E 008°54'0 0.0
2017-May-20 15:30N 44°24' E 008°54'0 0.0
2017-May-20 15:00N 44°24' E 008°54'0 0.0
2017-May-20 14:30N 44°24' E 008°54'0 0.0
2017-May-20 13:30N 44°24' E 008°54'0 0.0
2017-May-20 13:00N 44°24' E 008°54'0 0.0
2017-May-20 12:30N 44°24' E 008°54'0 0.0
2017-May-20 12:00N 44°24' E 008°54'0 0.0
2017-May-20 11:30N 44°24' E 008°54'0 0.0
2017-May-20 11:00N 44°24' E 008°54'0 0.0
2017-May-20 10:30N 44°24' E 008°54'0 0.0
2017-May-20 10:00N 44°24' E 008°54'0 0.7
2017-May-20 09:30N 44°24' E 008°54'0 0.2
2017-May-20 09:00N 44°24' E 008°54'0 0.0
2017-May-20 08:30N 44°24' E 008°54'0 0.0
2017-May-20 08:00N 44°24' E 008°54'0 0.0
2017-May-20 07:30N 44°24' E 008°54'0 0.0
2017-May-20 07:00N 44°24' E 008°54'  
Track history (hours):
 
Tides and Currents Weather Stations Pressure Air Temp Water Temp Dewpoint Dewpoint Depression Visibility Wind Speed Wind Dir Waves Ship Positions

Punta Gialla

Last reported at 2017-May-30 07:00 UTC. Time now 2017-May-30 07:15 UTC.
Position N 44°24' E 008°54'.

Length 52 m; draft 1.7 m.

Type: Ship (hazmat cat D). MMSI: 247077500.

Date/timePositionNaut miles runAvg speedWind from/ knotsBaromVisibWave heightAir tempDewpointWater temp
2017-May-30 07:00N 44°24' E 008°54'0 0.0
2017-May-30 06:30N 44°24' E 008°54'0 0.0
2017-May-30 06:00N 44°24' E 008°54'0 0.0
2017-May-30 05:30N 44°24' E 008°54'0 0.0
2017-May-30 05:00N 44°24' E 008°54'0 0.0
2017-May-30 04:30N 44°24' E 008°54'0 0.0
2017-May-30 04:00N 44°24' E 008°54'0 0.0
2017-May-30 03:30N 44°24' E 008°54'0 0.0
2017-May-30 03:00N 44°24' E 008°54'0 0.0
2017-May-30 02:30N 44°24' E 008°54'0 0.0
2017-May-30 02:00N 44°24' E 008°54'0 0.0
2017-May-30 01:30N 44°24' E 008°54'0 0.0
2017-May-30 01:00N 44°24' E 008°54'0 0.0
2017-May-30 00:30N 44°24' E 008°54'0 0.0
2017-May-30 00:00N 44°24' E 008°54'0 0.0
2017-May-29 23:30N 44°24' E 008°54'0 0.0
2017-May-29 23:00N 44°24' E 008°54'0 0.0
2017-May-29 22:30N 44°24' E 008°54'0 0.0
2017-May-29 22:00N 44°24' E 008°54'0 0.0
2017-May-29 21:30N 44°24' E 008°54'0 0.0
2017-May-29 21:00N 44°24' E 008°54'0 0.0
2017-May-29 20:30N 44°24' E 008°54'0 0.0
2017-May-29 20:00N 44°24' E 008°54'0 0.0
2017-May-29 19:30N 44°24' E 008°54'0 0.7
2017-May-29 19:00N 44°24' E 008°55'0 0.0
2017-May-29 18:30N 44°24' E 008°55'0 0.0
2017-May-29 18:00N 44°24' E 008°55'0 0.1
2017-May-29 17:30N 44°24' E 008°55'0 0.7
2017-May-29 17:00N 44°24' E 008°54'0 0.0
2017-May-29 16:30N 44°24' E 008°54'0 0.0
2017-May-29 16:00N 44°24' E 008°54'0 0.0
2017-May-29 15:30N 44°24' E 008°54'0 0.0
2017-May-29 15:00N 44°24' E 008°54'0 0.0
2017-May-29 14:00N 44°24' E 008°54'0 0.0
2017-May-29 13:30N 44°24' E 008°54'1 2.5
2017-May-29 13:00N 44°24' E 008°53'4 7.7
2017-May-29 12:30N 44°22' E 008°48'5 9.6
2017-May-29 12:00N 44°20' E 008°42'5 9.3
2017-May-29 11:30N 44°18' E 008°37'5 9.3
2017-May-29 11:00N 44°19' E 008°30'1 1.5
2017-May-29 10:30N 44°19' E 008°29'0 0.0
2017-May-29 09:47N 44°19' E 008°29'0 0.0
2017-May-29 09:30N 44°19' E 008°29'0 0.0
2017-May-29 09:00N 44°19' E 008°29'0 0.0
2017-May-29 08:30N 44°19' E 008°29'0 0.1
2017-May-29 08:00N 44°19' E 008°29'0 0.0
2017-May-29 07:30N 44°19' E 008°29'3 5.5
2017-May-29 07:00N 44°18' E 008°33'4 7.8
2017-May-29 06:29N 44°18' E 008°39'4 8.5
2017-May-29 06:00N 44°20' E 008°44'4 8.3
2017-May-29 05:30N 44°22' E 008°49'3 7.0
2017-May-29 05:01N 44°24' E 008°53'1 2.7
2017-May-29 04:30N 44°24' E 008°54'0 0.0
2017-May-29 04:00N 44°24' E 008°54'0 0.0
2017-May-29 03:30N 44°24' E 008°54'0 0.0
2017-May-29 03:00N 44°24' E 008°54'0 0.0
2017-May-29 02:30N 44°24' E 008°54'0 0.0
2017-May-29 02:00N 44°24' E 008°54'0 0.0
2017-May-29 01:30N 44°24' E 008°54'0 0.0
2017-May-29 01:00N 44°24' E 008°54'0 0.0
2017-May-29 00:30N 44°24' E 008°54'0 0.0
2017-May-29 00:00N 44°24' E 008°54'0 0.0
2017-May-28 23:30N 44°24' E 008°54'0 0.0
2017-May-28 23:00N 44°24' E 008°54'0 0.0
2017-May-28 22:31N 44°24' E 008°54'0 0.0
2017-May-28 22:00N 44°24' E 008°54'0 0.0
2017-May-28 21:31N 44°24' E 008°54'0 0.0
2017-May-28 21:01N 44°24' E 008°54'0 0.0
2017-May-28 20:31N 44°24' E 008°54'0 0.0
2017-May-28 20:00N 44°24' E 008°54'0 0.0
2017-May-28 19:30N 44°24' E 008°54'0 0.0
2017-May-28 19:00N 44°24' E 008°54'0 0.0
2017-May-28 18:30N 44°24' E 008°54'0 0.0
2017-May-28 18:01N 44°24' E 008°54'0 0.0
2017-May-28 17:31N 44°24' E 008°54'0 0.0
2017-May-28 17:00N 44°24' E 008°54'0 0.0
2017-May-28 16:30N 44°24' E 008°54'0 0.0
2017-May-28 16:00N 44°24' E 008°54'0 0.0
2017-May-28 15:30N 44°24' E 008°54'0 0.0
2017-May-28 15:00N 44°24' E 008°54'0 0.0
2017-May-28 14:00N 44°24' E 008°54'0 0.0
2017-May-28 13:30N 44°24' E 008°54'0 0.0
2017-May-28 13:00N 44°24' E 008°54'0 0.0
2017-May-28 12:30N 44°24' E 008°54'0 0.0
2017-May-28 12:00N 44°24' E 008°54'0 0.0
2017-May-28 11:30N 44°24' E 008°54'0 0.0
2017-May-28 11:00N 44°24' E 008°54'0 0.0
2017-May-28 10:30N 44°24' E 008°54'0 0.0
2017-May-28 10:00N 44°24' E 008°54'0 0.0
2017-May-28 09:30N 44°24' E 008°54'0 0.0
2017-May-28 09:01N 44°24' E 008°54'0 0.0
2017-May-28 08:30N 44°24' E 008°54'0 0.0
2017-May-28 08:01N 44°24' E 008°54'0 0.0
2017-May-28 07:30N 44°24' E 008°54'0 0.0
2017-May-28 07:01N 44°24' E 008°54'0 0.0
2017-May-28 06:30N 44°24' E 008°54'0 0.0
2017-May-28 06:00N 44°24' E 008°54'0 0.0
2017-May-28 05:30N 44°24' E 008°54'0 0.0
2017-May-28 05:00N 44°24' E 008°54'0 0.0
2017-May-28 04:30N 44°24' E 008°54'0 0.0
2017-May-28 04:00N 44°24' E 008°54'0 0.0
2017-May-28 03:31N 44°24' E 008°54'0 0.0
2017-May-28 03:00N 44°24' E 008°54'0 0.0
2017-May-28 02:30N 44°24' E 008°54'0 0.0
2017-May-28 02:01N 44°24' E 008°54'0 0.0
2017-May-28 01:30N 44°24' E 008°54'0 0.0
2017-May-28 01:00N 44°24' E 008°54'0 0.0
2017-May-28 00:30N 44°24' E 008°54'0 0.0
2017-May-28 00:00N 44°24' E 008°54'0 0.0
2017-May-27 23:30N 44°24' E 008°54'0 0.0
2017-May-27 23:00N 44°24' E 008°54'0 0.0
2017-May-27 22:30N 44°24' E 008°54'0 0.0
2017-May-27 22:00N 44°24' E 008°54'0 0.0
2017-May-27 21:30N 44°24' E 008°54'0 0.0
2017-May-27 21:00N 44°24' E 008°54'0 0.0
2017-May-27 20:30N 44°24' E 008°54'0 0.0
2017-May-27 20:00N 44°24' E 008°54'0 0.0
2017-May-27 19:31N 44°24' E 008°54'0 0.0
2017-May-27 19:00N 44°24' E 008°54'0 0.0
2017-May-27 18:30N 44°24' E 008°54'0 0.0
2017-May-27 18:00N 44°24' E 008°54'0 0.0
2017-May-27 17:30N 44°24' E 008°54'0 0.0
2017-May-27 17:00N 44°24' E 008°54'0 0.0
2017-May-27 16:30N 44°24' E 008°54'0 0.0
2017-May-27 16:00N 44°24' E 008°54'0 0.0
2017-May-27 15:30N 44°24' E 008°54'0 0.0
2017-May-27 15:00N 44°24' E 008°54'0 0.0
2017-May-27 14:00N 44°24' E 008°54'0 0.0
2017-May-27 13:30N 44°24' E 008°54'0 0.0
2017-May-27 13:01N 44°24' E 008°54'0 0.0
2017-May-27 12:31N 44°24' E 008°54'0 0.0
2017-May-27 12:00N 44°24' E 008°54'0 0.0
2017-May-27 11:30N 44°24' E 008°54'0 0.0
2017-May-27 11:00N 44°24' E 008°54'0 0.0
2017-May-27 10:30N 44°24' E 008°54'0 0.0
2017-May-27 10:00N 44°24' E 008°54'0 0.0
2017-May-27 09:30N 44°24' E 008°54'0 0.0
2017-May-27 09:00N 44°24' E 008°54'0 0.7
2017-May-27 08:30N 44°24' E 008°54'0 0.0
2017-May-27 08:00N 44°24' E 008°54'0 0.0
2017-May-27 07:30N 44°24' E 008°54'0 0.0
2017-May-27 07:00N 44°24' E 008°54'0 0.6
2017-May-27 06:30N 44°24' E 008°54'0 0.0
2017-May-27 06:00N 44°24' E 008°54'0 0.0
2017-May-27 05:30N 44°24' E 008°54'0 0.0
2017-May-27 05:00N 44°24' E 008°54'0 0.0
2017-May-27 04:31N 44°24' E 008°54'0 0.0
2017-May-27 04:00N 44°24' E 008°54'0 0.0
2017-May-27 03:30N 44°24' E 008°54'0 0.0
2017-May-27 03:00N 44°24' E 008°54'0 0.0
2017-May-27 02:30N 44°24' E 008°54'0 0.0
2017-May-27 02:00N 44°24' E 008°54'0 0.0
2017-May-27 01:30N 44°24' E 008°54'0 0.0
2017-May-27 01:00N 44°24' E 008°54'0 0.0
2017-May-27 00:30N 44°24' E 008°54'0 0.0
2017-May-27 00:00N 44°24' E 008°54'0 0.0
2017-May-26 23:30N 44°24' E 008°54'1 2.1
2017-May-26 23:00N 44°24' E 008°53'0 0.0
2017-May-26 22:30N 44°24' E 008°53'0 0.0
2017-May-26 22:00N 44°24' E 008°53'0 0.0
2017-May-26 21:30N 44°24' E 008°53'0 0.0
2017-May-26 21:00N 44°24' E 008°53'0 0.0
2017-May-26 20:30N 44°24' E 008°53'1 1.2
2017-May-26 20:00N 44°24' E 008°54'1 1.8
2017-May-26 19:30N 44°24' E 008°55'0 0.0
2017-May-26 19:00N 44°24' E 008°55'0 0.0
2017-May-26 18:30N 44°24' E 008°55'0 0.0
2017-May-26 18:00N 44°24' E 008°55'0 0.0
2017-May-26 17:30N 44°24' E 008°55'0 0.1
2017-May-26 17:00N 44°24' E 008°55'0 0.0
2017-May-26 16:30N 44°24' E 008°55'0 0.0
2017-May-26 16:00N 44°24' E 008°55'0 0.0
2017-May-26 15:30N 44°24' E 008°55'0 0.0
2017-May-26 15:00N 44°24' E 008°55'0 0.0
2017-May-26 14:30N 44°24' E 008°55'0 0.5
2017-May-26 13:30N 44°24' E 008°54'0 0.0
2017-May-26 13:00N 44°24' E 008°54'0 0.0
2017-May-26 12:30N 44°24' E 008°54'0 0.0
2017-May-26 12:00N 44°24' E 008°54'0 0.0
2017-May-26 11:30N 44°24' E 008°54'0 0.0
2017-May-26 11:00N 44°24' E 008°54'0 0.0
2017-May-26 10:30N 44°24' E 008°54'0 0.0
2017-May-26 10:00N 44°24' E 008°54'0 0.0
2017-May-26 09:30N 44°24' E 008°54'0 0.0
2017-May-26 09:00N 44°24' E 008°54'0 0.0
2017-May-26 08:30N 44°24' E 008°54'0 0.0
2017-May-26 08:00N 44°24' E 008°54'0 0.0
2017-May-26 07:30N 44°24' E 008°54'0 0.0
2017-May-26 07:00N 44°24' E 008°54'0 0.0
2017-May-26 06:30N 44°24' E 008°54'0 0.0
2017-May-26 06:00N 44°24' E 008°54'0 0.0
2017-May-26 05:30N 44°24' E 008°54'0 0.0
2017-May-26 05:00N 44°24' E 008°54'0 0.0
2017-May-26 04:30N 44°24' E 008°54'0 0.0
2017-May-26 04:00N 44°24' E 008°54'0 0.0
2017-May-26 03:30N 44°24' E 008°54'0 0.0
2017-May-26 03:00N 44°24' E 008°54'0 0.0
2017-May-26 02:30N 44°24' E 008°54'0 0.0
2017-May-26 02:00N 44°24' E 008°54'0 0.0
2017-May-26 01:30N 44°24' E 008°54'0 0.0
2017-May-26 01:00N 44°24' E 008°54'0 0.0
2017-May-26 00:30N 44°24' E 008°54'0 0.0
2017-May-26 00:00N 44°24' E 008°54'0 0.0
2017-May-25 23:30N 44°24' E 008°54'0 0.0
2017-May-25 23:00N 44°24' E 008°54'0 0.0
2017-May-25 22:30N 44°24' E 008°54'0 0.0
2017-May-25 22:00N 44°24' E 008°54'0 0.0
2017-May-25 21:30N 44°24' E 008°54'0 0.0
2017-May-25 21:00N 44°24' E 008°54'0 0.0
2017-May-25 20:30N 44°24' E 008°54'0 0.0
2017-May-25 20:00N 44°24' E 008°54'0 0.0
2017-May-25 19:30N 44°24' E 008°54'0 0.0
2017-May-25 19:00N 44°24' E 008°54'0 0.0
2017-May-25 18:30N 44°24' E 008°54'0 0.0
2017-May-25 18:00N 44°24' E 008°54'0 0.5
2017-May-25 17:30N 44°24' E 008°55'0 0.0
2017-May-25 17:00N 44°24' E 008°55'0 0.0
2017-May-25 16:30N 44°24' E 008°55'0 0.0
2017-May-25 16:00N 44°24' E 008°55'0 0.0
2017-May-25 15:30N 44°24' E 008°55'0 0.0
2017-May-25 15:00N 44°24' E 008°55'0 0.2
2017-May-25 14:00N 44°24' E 008°54'0 0.1
2017-May-25 13:30N 44°24' E 008°54'3 6.1
2017-May-25 13:00N 44°23' E 008°50'3 5.4
2017-May-25 12:30N 44°25' E 008°47'0 0.3
2017-May-25 12:00N 44°25' E 008°48'0 0.0
2017-May-25 11:30N 44°25' E 008°48'0 0.0
2017-May-25 11:00N 44°25' E 008°48'0 0.0
2017-May-25 10:30N 44°25' E 008°48'0 0.0
2017-May-25 10:00N 44°25' E 008°48'0 0.1
2017-May-25 09:30N 44°25' E 008°48'0 0.0
2017-May-25 09:00N 44°25' E 008°48'0 0.0
2017-May-25 08:30N 44°25' E 008°48'0 0.0
2017-May-25 08:00N 44°25' E 008°48'0 0.0
2017-May-25 07:30N 44°25' E 008°48'0 0.1
2017-May-25 07:00N 44°25' E 008°48'2 4.6
2017-May-25 06:30N 44°23' E 008°49'3 6.9
2017-May-25 06:00N 44°24' E 008°54'1 1.5
2017-May-25 05:30N 44°24' E 008°55'0 0.0
2017-May-25 05:00N 44°24' E 008°55'0 0.0
2017-May-25 04:30N 44°24' E 008°55'0 0.0
2017-May-25 04:00N 44°24' E 008°55'0 0.0
2017-May-25 03:30N 44°24' E 008°55'0 0.0
2017-May-25 03:00N 44°24' E 008°55'0 0.0
2017-May-25 02:30N 44°24' E 008°55'0 0.0
2017-May-25 02:00N 44°24' E 008°55'0 0.0
2017-May-25 01:30N 44°24' E 008°55'0 0.0
2017-May-25 01:00N 44°24' E 008°55'0 0.0
2017-May-25 00:30N 44°24' E 008°55'0 0.0
2017-May-25 00:00N 44°24' E 008°55'0 0.0
2017-May-24 23:30N 44°24' E 008°55'1 2.9
2017-May-24 23:00N 44°24' E 008°53'0 0.0
2017-May-24 22:30N 44°24' E 008°53'0 0.0
2017-May-24 22:00N 44°24' E 008°53'0 0.1
2017-May-24 21:30N 44°24' E 008°53'0 0.0
2017-May-24 21:01N 44°24' E 008°53'1 2.8
2017-May-24 20:30N 44°24' E 008°55'0 0.0
2017-May-24 20:00N 44°24' E 008°55'0 0.0
2017-May-24 19:30N 44°24' E 008°55'0 0.0
2017-May-24 19:00N 44°24' E 008°55'0 0.0
2017-May-24 18:30N 44°24' E 008°55'0 0.0
2017-May-24 18:01N 44°24' E 008°55'0 0.0
2017-May-24 17:31N 44°24' E 008°55'0 0.9
2017-May-24 17:01N 44°24' E 008°54'0 0.0
2017-May-24 16:31N 44°24' E 008°54'0 0.0
2017-May-24 16:01N 44°24' E 008°54'0 0.0
2017-May-24 15:31N 44°24' E 008°54'0 0.0
2017-May-24 15:01N 44°24' E 008°54'0 0.0
2017-May-24 14:31N 44°24' E 008°54'0 0.0
2017-May-24 13:30N 44°24' E 008°54'0 0.0
2017-May-24 13:00N 44°24' E 008°54'0 0.9
2017-May-24 12:30N 44°24' E 008°55'0 0.0
2017-May-24 12:01N 44°24' E 008°55'0 0.0
2017-May-24 11:30N 44°24' E 008°55'0 0.1
2017-May-24 04:36N 44°24' E 008°54'0 0.0
2017-May-24 04:30N 44°24' E 008°54'0 0.0
2017-May-24 04:00N 44°24' E 008°54'0 0.0
2017-May-24 03:30N 44°24' E 008°54'0 0.0
2017-May-24 03:00N 44°24' E 008°54'0 0.0
2017-May-24 02:30N 44°24' E 008°54'0 0.0
2017-May-24 02:00N 44°24' E 008°54'0 0.0
2017-May-24 01:30N 44°24' E 008°54'0 0.0
2017-May-24 01:00N 44°24' E 008°54'0 0.0
2017-May-24 00:30N 44°24' E 008°54'0 0.0
2017-May-24 00:00N 44°24' E 008°54'0 0.0
2017-May-23 23:30N 44°24' E 008°54'0 0.0
2017-May-23 23:00N 44°24' E 008°54'0 0.0
2017-May-23 22:30N 44°24' E 008°54'0 0.0
2017-May-23 22:00N 44°24' E 008°54'0 0.0
2017-May-23 21:30N 44°24' E 008°54'0 0.0
2017-May-23 21:00N 44°24' E 008°54'0 0.0
2017-May-23 20:30N 44°24' E 008°54'0 0.0
2017-May-23 20:00N 44°24' E 008°54'0 0.0
2017-May-23 19:30N 44°24' E 008°54'0 0.9
2017-May-23 19:00N 44°25' E 008°55'0 0.0
2017-May-23 18:30N 44°25' E 008°55'0 0.0
2017-May-23 18:00N 44°25' E 008°55'0 0.0
2017-May-23 17:30N 44°25' E 008°55'1 1.4
2017-May-23 17:00N 44°24' E 008°55'1 1.1
2017-May-23 16:30N 44°24' E 008°54'0 0.0
2017-May-23 16:00N 44°24' E 008°54'0 0.0
2017-May-23 15:30N 44°24' E 008°54'0 0.0
2017-May-23 15:00N 44°24' E 008°54'0 0.3
2017-May-23 14:01N 44°24' E 008°55'0 0.4
2017-May-23 13:30N 44°24' E 008°55'0 0.0
2017-May-23 13:00N 44°24' E 008°55'0 0.0
2017-May-23 12:30N 44°24' E 008°55'0 0.0
2017-May-23 12:00N 44°24' E 008°55'0 0.0
2017-May-23 11:30N 44°24' E 008°55'0 0.0
2017-May-23 11:00N 44°24' E 008°55'0 0.0
2017-May-23 10:30N 44°24' E 008°55'0 0.0
2017-May-23 10:00N 44°24' E 008°55'0 0.0
2017-May-23 09:30N 44°24' E 008°55'0 0.0
2017-May-23 09:01N 44°24' E 008°55'0 1.0
2017-May-23 08:31N 44°24' E 008°54'0 0.0
2017-May-23 08:00N 44°24' E 008°54'0 0.0
2017-May-23 07:31N 44°24' E 008°54'0 0.0
2017-May-23 07:00N 44°24' E 008°54'0 0.0
2017-May-23 06:30N 44°24' E 008°54'0 0.0
2017-May-23 06:00N 44°24' E 008°54'0 0.0
2017-May-23 05:31N 44°24' E 008°54'0 0.0
2017-May-23 05:01N 44°24' E 008°54'0 0.0
2017-May-23 04:30N 44°24' E 008°54'0 0.0
2017-May-23 04:01N 44°24' E 008°54'0 0.0
2017-May-23 03:30N 44°24' E 008°54'0 0.0
2017-May-23 03:00N 44°24' E 008°54'0 0.0
2017-May-23 02:30N 44°24' E 008°54'0 0.0
2017-May-23 02:00N 44°24' E 008°54'0 0.0
2017-May-23 01:31N 44°24' E 008°54'0 0.0
2017-May-23 01:00N 44°24' E 008°54'0 0.0
2017-May-23 00:30N 44°24' E 008°54'0 0.0
2017-May-23 00:00N 44°24' E 008°54'0 0.0
2017-May-22 23:31N 44°24' E 008°54'0 0.0
2017-May-22 23:01N 44°24' E 008°54'0 0.0
2017-May-22 22:30N 44°24' E 008°54'0 0.0
2017-May-22 22:00N 44°24' E 008°54'0 0.0
2017-May-22 21:31N 44°24' E 008°54'0 0.0
2017-May-22 21:00N 44°24' E 008°54'0 0.0
2017-May-22 20:30N 44°24' E 008°54'0 0.0
2017-May-22 20:00N 44°24' E 008°54'0 0.0
2017-May-22 19:30N 44°24' E 008°54'0 0.0
2017-May-22 19:00N 44°24' E 008°54'0 0.0
2017-May-22 18:30N 44°24' E 008°54'0 0.0
2017-May-22 18:00N 44°24' E 008°54'0 0.0
2017-May-22 17:30N 44°24' E 008°54'0 0.0
2017-May-22 17:00N 44°24' E 008°54'0 0.0
2017-May-22 16:30N 44°24' E 008°54'0 0.0
2017-May-22 16:00N 44°24' E 008°54'0 0.0
2017-May-22 15:30N 44°24' E 008°54'0 0.0
2017-May-22 15:00N 44°24' E 008°54'0 0.0
2017-May-22 14:01N 44°24' E 008°54'0 0.0
2017-May-22 13:30N 44°24' E 008°54'0 0.0
2017-May-22 13:00N 44°24' E 008°54'0 0.0
2017-May-22 12:31N 44°24' E 008°54'0 0.0
2017-May-22 12:00N 44°24' E 008°54'0 0.0
2017-May-22 11:30N 44°24' E 008°54'0 0.0
2017-May-22 11:00N 44°24' E 008°54'0 0.0
2017-May-22 10:31N 44°24' E 008°54'0 0.0
2017-May-22 10:00N 44°24' E 008°54'0 0.0
2017-May-22 09:30N 44°24' E 008°54'0 0.0
2017-May-22 09:00N 44°24' E 008°54'0 0.0
2017-May-22 08:30N 44°24' E 008°54'0 0.0
2017-May-22 08:00N 44°24' E 008°54'0 0.0
2017-May-22 07:30N 44°24' E 008°54'0 0.0
2017-May-22 07:01N 44°24' E 008°54'0 0.0
2017-May-22 06:30N 44°24' E 008°54'0 0.0
2017-May-22 06:01N 44°24' E 008°54'0 0.0
2017-May-22 05:31N 44°24' E 008°54'0 0.0
2017-May-22 05:00N 44°24' E 008°54'0 0.0
2017-May-22 04:31N 44°24' E 008°54'0 0.0
2017-May-22 04:01N 44°24' E 008°54'0 0.0
2017-May-22 03:30N 44°24' E 008°54'0 0.0
2017-May-22 03:00N 44°24' E 008°54'0 0.0
2017-May-22 02:31N 44°24' E 008°54'0 0.0
2017-May-22 02:00N 44°24' E 008°54'0 0.0
2017-May-22 01:31N 44°24' E 008°54'0 0.0
2017-May-22 01:01N 44°24' E 008°54'0 0.0
2017-May-22 00:31N 44°24' E 008°54'0 0.0
2017-May-22 00:01N 44°24' E 008°54'0 0.0
2017-May-21 23:31N 44°24' E 008°54'0 0.0
2017-May-21 23:01N 44°24' E 008°54'0 0.0
2017-May-21 22:31N 44°24' E 008°54'0 0.0
2017-May-21 22:01N 44°24' E 008°54'0 0.0
2017-May-21 21:31N 44°24' E 008°54'0 0.0
2017-May-21 21:00N 44°24' E 008°54'0 0.0
2017-May-21 20:31N 44°24' E 008°54'0 0.0
2017-May-21 20:00N 44°24' E 008°54'0 0.0
2017-May-21 19:31N 44°24' E 008°54'0 0.0
2017-May-21 19:01N 44°24' E 008°54'0 0.0
2017-May-21 18:30N 44°24' E 008°54'0 0.0
2017-May-21 18:00N 44°24' E 008°54'0 0.0
2017-May-21 17:31N 44°24' E 008°54'0 0.0
2017-May-21 17:00N 44°24' E 008°54'0 0.0
2017-May-21 16:30N 44°24' E 008°54'0 0.0
2017-May-21 16:00N 44°24' E 008°54'0 0.0
2017-May-21 15:31N 44°24' E 008°54'0 0.0
2017-May-21 15:00N 44°24' E 008°54'0 0.0
2017-May-21 14:01N 44°24' E 008°54'0 0.0
2017-May-21 13:31N 44°24' E 008°54'0 0.0
2017-May-21 13:01N 44°24' E 008°54'0 0.4
2017-May-21 12:31N 44°24' E 008°54'6 7.7
2017-May-21 11:41N 44°21' E 008°46'2 9.4
2017-May-21 11:30N 44°20' E 008°44'5 9.7
2017-May-21 11:00N 44°18' E 008°38'4 8.7
2017-May-21 10:30N 44°18' E 008°32'2 4.2
2017-May-21 10:00N 44°19' E 008°30'0 0.0
2017-May-21 09:30N 44°19' E 008°30'0 0.0
2017-May-21 09:00N 44°19' E 008°30'0 0.0
2017-May-21 08:30N 44°19' E 008°30'0 0.1
2017-May-21 08:00N 44°19' E 008°30'0 0.0
2017-May-21 07:30N 44°19' E 008°30'1 2.6
2017-May-21 07:00N 44°18' E 008°31'4 7.2
2017-May-21 06:30N 44°17' E 008°36'4 8.9
2017-May-21 06:00N 44°19' E 008°42'4 8.6
2017-May-21 05:30N 44°21' E 008°47'5 9.0
2017-May-21 05:00N 44°24' E 008°52'1 2.9
2017-May-21 04:30N 44°24' E 008°54'0 0.0
2017-May-21 04:00N 44°24' E 008°54'0 0.0
2017-May-21 03:30N 44°24' E 008°54'0 0.0
2017-May-21 03:00N 44°24' E 008°54'0 0.0
2017-May-21 02:30N 44°24' E 008°54'0 0.0
2017-May-21 02:00N 44°24' E 008°54'0 0.0
2017-May-21 01:30N 44°24' E 008°54'0 0.0
2017-May-21 01:00N 44°24' E 008°54'0 0.0
2017-May-21 00:30N 44°24' E 008°54'0 0.0
2017-May-21 00:00N 44°24' E 008°54'0 0.0
2017-May-20 23:30N 44°24' E 008°54'0 0.0
2017-May-20 23:00N 44°24' E 008°54'0 0.0
2017-May-20 22:30N 44°24' E 008°54'0 0.0
2017-May-20 22:00N 44°24' E 008°54'0 0.0
2017-May-20 21:30N 44°24' E 008°54'0 0.0
2017-May-20 21:00N 44°24' E 008°54'0 0.0
2017-May-20 20:30N 44°24' E 008°54'0 0.0
2017-May-20 20:00N 44°24' E 008°54'0 0.0
2017-May-20 19:30N 44°24' E 008°54'0 0.0
2017-May-20 19:00N 44°24' E 008°54'0 0.0
2017-May-20 18:30N 44°24' E 008°54'0 0.0
2017-May-20 18:00N 44°24' E 008°54'0 0.0
2017-May-20 17:30N 44°24' E 008°54'0 0.0
2017-May-20 17:00N 44°24' E 008°54'0 0.0
2017-May-20 16:30N 44°24' E 008°54'0 0.0
2017-May-20 16:00N 44°24' E 008°54'0 0.0
2017-May-20 15:30N 44°24' E 008°54'0 0.0
2017-May-20 15:00N 44°24' E 008°54'0 0.0
2017-May-20 14:30N 44°24' E 008°54'0 0.0
2017-May-20 13:30N 44°24' E 008°54'0 0.0
2017-May-20 13:00N 44°24' E 008°54'0 0.0
2017-May-20 12:30N 44°24' E 008°54'0 0.0
2017-May-20 12:00N 44°24' E 008°54'0 0.0
2017-May-20 11:30N 44°24' E 008°54'0 0.0
2017-May-20 11:00N 44°24' E 008°54'0 0.0
2017-May-20 10:30N 44°24' E 008°54'0 0.0
2017-May-20 10:00N 44°24' E 008°54'0 0.7
2017-May-20 09:30N 44°24' E 008°54'0 0.2
2017-May-20 09:00N 44°24' E 008°54'0 0.0
2017-May-20 08:30N 44°24' E 008°54'0 0.0
2017-May-20 08:00N 44°24' E 008°54'0 0.0
2017-May-20 07:30N 44°24' E 008°54'0 0.0
2017-May-20 07:00N 44°24' E 008°54'  

Dump ship's entire track history